Time;durP1;ratioP1;P1;durP2;ratioP2;P2;SDS_P1;SDS_P2;PMS_P1;PMS_P2;Temp;Humidity;BMP_temperature;BMP_pressure;BME280_temperature;BME280_humidity;BME280_pressure;Samples;Min_cycle;Max_cycle;Signal;HPM_P1;HPM_P2
2022/05/01 00:00:27;;;;;;;32.17;20.05;;;;;;;4.69;64.29;97631.23;1723138;81;25829;-75
2022/05/01 00:02:55;;;;;;;37.63;22.13;;;;;;;4.70;64.38;97638.27;1723957;81;26097;-74
2022/05/01 00:05:22;;;;;;;33.73;21.05;;;;;;;4.72;64.34;97639.41;1695245;83;25659;-74
2022/05/01 00:07:49;;;;;;;33.38;20.05;;;;;;;4.73;64.39;97638.90;1695167;84;25767;-73
2022/05/01 00:10:16;;;;;;;31.75;19.23;;;;;;;4.69;64.42;97639.27;1695326;84;25783;-74
2022/05/01 00:12:43;;;;;;;29.23;18.85;;;;;;;4.66;64.46;97644.94;1695173;84;25697;-73
2022/05/01 00:15:10;;;;;;;30.68;18.45;;;;;;;4.62;64.53;97642.26;1695178;84;26830;-74
2022/05/01 00:17:37;;;;;;;28.15;19.23;;;;;;;4.62;64.60;97645.43;1694986;84;25753;-73
2022/05/01 00:20:05;;;;;;;29.40;19.05;;;;;;;4.59;64.59;97643.92;1695130;84;26531;-74
2022/05/01 00:22:32;;;;;;;29.77;19.57;;;;;;;4.56;64.84;97652.30;1695191;84;25705;-74
2022/05/01 00:24:58;;;;;;;29.57;18.87;;;;;;;4.47;64.87;97642.59;1695280;84;25682;-74
2022/05/01 00:27:25;;;;;;;29.35;18.82;;;;;;;4.46;65.06;97643.63;1695230;84;27396;-74
2022/05/01 00:29:52;;;;;;;29.80;19.02;;;;;;;4.40;65.01;97636.75;1695095;84;25791;-76
2022/05/01 00:32:18;;;;;;;29.30;19.62;;;;;;;4.27;65.10;97635.91;1695134;84;25779;-74
2022/05/01 00:37:30;;;;;;;31.65;18.70;;;;;;;4.26;65.49;97635.58;1694886;84;25741;-75
2022/05/01 00:39:57;;;;;;;30.43;18.23;;;;;;;4.28;65.54;97634.91;1695251;84;27420;-74
2022/05/01 00:42:23;;;;;;;27.70;18.12;;;;;;;4.28;65.48;97634.91;1694977;84;25789;-75
2022/05/01 00:44:51;;;;;;;29.98;17.95;;;;;;;4.28;65.55;97634.91;1695059;84;26645;-75
2022/05/01 00:47:17;;;;;;;31.15;19.25;;;;;;;4.27;65.56;97635.91;1695144;84;26490;-73
2022/05/01 00:49:44;;;;;;;31.73;21.40;;;;;;;4.26;65.76;97634.24;1695127;84;25837;-74
2022/05/01 00:52:12;;;;;;;27.30;18.30;;;;;;;4.21;65.70;97640.10;1695179;84;28229;-74
2022/05/01 00:54:42;;;;;;;31.52;19.75;;;;;;;4.19;65.85;97643.94;1694807;84;25707;-76
2022/05/01 00:57:10;;;;;;;29.63;18.70;;;;;;;4.21;65.96;97640.60;1695154;84;25856;-74
2022/05/01 00:59:38;;;;;;;27.58;17.32;;;;;;;4.20;65.92;97642.94;1694974;84;25798;-77
2022/05/01 01:02:06;;;;;;;23.27;16.85;;;;;;;4.17;65.88;97641.92;1695551;84;25692;-75
2022/05/01 01:04:33;;;;;;;27.67;17.35;;;;;;;4.13;66.00;97640.07;1694982;84;27456;-74
2022/05/01 01:07:00;;;;;;;25.70;17.80;;;;;;;4.15;66.19;97641.25;1695116;84;25694;-77
2022/05/01 01:09:27;;;;;;;24.90;17.57;;;;;;;4.14;66.15;97640.91;1694871;84;25784;-74
2022/05/01 01:14:42;;;;;;;26.97;18.57;;;;;;;4.03;66.17;97641.23;1695120;84;25683;-74
2022/05/01 01:17:08;;;;;;;28.73;18.98;;;;;;;3.97;66.33;97649.42;1695119;84;27405;-73
2022/05/01 01:19:34;;;;;;;25.68;18.12;;;;;;;3.89;66.29;97640.88;1695263;84;25623;-74
2022/05/01 01:22:04;;;;;;;26.68;18.15;;;;;;;3.77;66.54;97639.51;1695430;84;25763;-73
2022/05/01 01:24:31;;;;;;;24.12;17.45;;;;;;;3.77;66.65;97636.83;1695035;84;25728;-76
2022/05/01 01:26:58;;;;;;;26.97;18.48;;;;;;;3.76;66.71;97637.83;1695077;84;25759;-74
2022/05/01 01:32:13;;;;;;;23.92;16.62;;;;;;;3.77;66.85;97639.51;1694785;84;25892;-75
2022/05/01 01:34:42;;;;;;;24.82;17.20;;;;;;;3.73;66.72;97640.85;1695124;84;25779;-74
2022/05/01 01:37:11;;;;;;;27.65;18.70;;;;;;;3.69;66.89;97636.83;1695182;84;26286;-74
2022/05/01 01:39:38;;;;;;;26.68;17.80;;;;;;;3.64;66.98;97641.80;1693177;84;25801;-74
2022/05/01 01:42:09;;;;;;;26.82;17.35;;;;;;;3.57;66.99;97646.97;1692532;84;27372;-74
2022/05/01 01:44:38;;;;;;;25.52;16.45;;;;;;;3.52;67.15;97640.42;1692403;84;25782;-75
2022/05/01 01:47:06;;;;;;;23.40;17.67;;;;;;;3.51;67.20;97635.59;1692378;84;25700;-74
2022/05/01 01:49:33;;;;;;;25.95;17.55;;;;;;;3.53;67.26;97634.93;1692134;84;25743;-74
2022/05/01 01:52:00;;;;;;;33.05;19.48;;;;;;;3.56;67.37;97635.95;1692976;82;25675;-74
2022/05/01 01:54:27;;;;;;;31.60;20.60;;;;;;;3.58;67.38;97637.13;1683636;83;27425;-75
2022/05/01 01:56:54;;;;;;;30.23;19.23;;;;;;;3.51;67.40;97633.41;1677874;83;25272;-74
2022/05/01 01:59:22;;;;;;;32.98;20.62;;;;;;;3.45;67.52;97630.91;1677957;83;25712;-74
2022/05/01 02:01:49;;;;;;;37.60;21.10;;;;;;;3.45;67.70;97632.74;1678270;83;25763;-73
2022/05/01 02:04:15;;;;;;;31.15;20.23;;;;;;;3.48;67.78;97636.43;1678168;84;25689;-74
2022/05/01 02:06:43;;;;;;;32.70;19.60;;;;;;;3.49;67.72;97637.61;1678193;84;27382;-76
2022/05/01 02:09:12;;;;;;;32.73;20.57;;;;;;;3.49;67.81;97634.94;1678015;84;25835;-75
2022/05/01 02:11:40;;;;;;;26.97;18.07;;;;;;;3.50;67.83;97629.10;1678184;83;25801;-76
2022/05/01 02:14:07;;;;;;;29.12;17.37;;;;;;;3.51;67.81;97628.08;1678130;84;25767;-74
2022/05/01 02:16:34;;;;;;;31.30;18.40;;;;;;;3.54;67.87;97629.09;1678285;84;25740;-74
2022/05/01 02:19:00;;;;;;;26.02;17.95;;;;;;;3.55;67.88;97624.09;1678001;84;27405;-74
2022/05/01 02:21:36;;;;;;;32.35;20.70;;;;;;;3.57;67.87;97632.78;1678005;84;25727;-74
2022/05/01 02:24:07;;;;;;;27.02;18.82;;;;;;;3.59;67.92;97625.45;1677964;83;25695;-74
2022/05/01 02:26:35;;;;;;;30.20;19.80;;;;;;;3.61;67.93;97627.47;1621500;87;25854;-73
2022/05/01 02:29:04;;;;;;;27.52;19.30;;;;;;;3.58;67.95;97621.95;1595132;89;25798;-74
2022/05/01 02:31:31;;;;;;;29.15;17.65;;;;;;;3.53;68.01;97627.42;1592167;89;27395;-74
2022/05/01 02:33:57;;;;;;;25.25;17.85;;;;;;;3.54;68.08;97627.76;1594991;89;25798;-74
2022/05/01 02:36:24;;;;;;;28.10;17.12;;;;;;;3.55;68.10;97624.09;1592051;90;25949;-76
2022/05/01 02:38:50;;;;;;;24.95;15.98;;;;;;;3.52;68.03;97624.41;1595060;89;26401;-74
2022/05/01 02:41:18;;;;;;;26.10;16.57;;;;;;;3.48;68.02;97628.42;1592282;90;25730;-74
2022/05/01 02:43:45;;;;;;;27.10;17.15;;;;;;;3.46;68.08;97623.73;1595207;89;27396;-76
2022/05/01 02:46:12;;;;;;;27.15;17.37;;;;;;;3.39;68.04;97629.37;1592232;89;26535;-75
2022/05/01 02:48:39;;;;;;;29.90;17.80;;;;;;;3.34;68.11;97629.87;1595133;89;25803;-74
2022/05/01 02:51:06;;;;;;;24.98;16.82;;;;;;;3.36;68.21;97628.38;1592384;89;25797;-73
2022/05/01 02:53:33;;;;;;;25.72;17.07;;;;;;;3.36;68.24;97621.70;1586660;88;25783;-73
2022/05/01 02:56:00;;;;;;;30.85;16.07;;;;;;;3.33;68.17;97619.35;1606033;88;27631;-75
2022/05/01 02:58:29;;;;;;;25.32;17.32;;;;;;;3.29;68.16;97624.66;1579929;90;25947;-74
2022/05/01 03:00:57;;;;;;;24.85;17.25;;;;;;;3.24;68.18;97627.33;1606269;88;25828;-73
2022/05/01 03:03:24;;;;;;;30.40;18.07;;;;;;;3.21;68.25;97627.64;1580058;90;26460;-73
2022/05/01 03:05:52;;;;;;;28.35;18.32;;;;;;;3.10;68.28;97627.93;1606374;88;25796;-74
2022/05/01 03:08:20;;;;;;;25.08;16.93;;;;;;;3.05;68.43;97628.89;1579990;90;27432;-74
2022/05/01 03:10:48;;;;;;;25.77;17.30;;;;;;;3.05;68.57;97629.38;1606179;88;25786;-74
2022/05/01 03:13:15;;;;;;;25.08;17.37;;;;;;;3.04;68.56;97627.22;1580129;89;25983;-74
2022/05/01 03:15:41;;;;;;;26.97;17.12;;;;;;;3.04;68.54;97629.87;1606132;88;25864;-76
2022/05/01 03:23:39;;;;;;;59.65;28.85;;;;;;;2.99;68.82;97626.88;1580192;89;25811;-76
2022/05/01 03:26:06;;;;;;;74.47;34.83;;;;;;;2.95;68.92;97622.00;1606260;88;25876;-74
2022/05/01 03:28:32;;;;;;;70.65;33.67;;;;;;;2.97;69.01;97618.69;1580105;89;26023;-74
2022/05/01 03:30:59;;;;;;;65.05;33.50;;;;;;;2.95;69.08;97626.00;1707388;83;25671;-77
2022/05/01 03:33:26;;;;;;;48.20;26.75;;;;;;;2.96;69.15;97632.52;1681700;85;27541;-74
2022/05/01 03:35:57;;;;;;;85.92;39.75;;;;;;;2.96;69.21;97637.84;1713697;83;26431;-75
2022/05/01 03:38:23;;;;;;;110.72;47.93;;;;;;;2.97;69.34;97640.86;1713513;83;26467;-74
2022/05/01 03:40:50;;;;;;;88.92;37.38;;;;;;;2.87;69.18;97632.97;1681717;84;25720;-73
2022/05/01 03:43:17;;;;;;;94.67;39.53;;;;;;;2.87;69.32;97627.64;1713840;83;25633;-72
2022/05/01 03:45:44;;;;;;;105.43;45.08;;;;;;;2.91;69.39;97628.14;1713964;83;28014;-77
2022/05/01 03:48:11;;;;;;;111.05;44.90;;;;;;;2.95;69.51;97626.84;1681673;85;25882;-73
2022/05/01 03:50:39;;;;;;;94.50;41.58;;;;;;;2.99;69.67;97624.70;1713734;83;25803;-75
2022/05/01 03:53:07;;;;;;;78.22;36.25;;;;;;;3.01;69.83;97622.22;1681464;85;25862;-74
2022/05/01 03:55:36;;;;;;;62.27;32.03;;;;;;;3.06;69.95;97621.23;1713736;82;25694;-74
2022/05/01 03:58:04;;;;;;;60.15;31.90;;;;;;;3.08;69.97;97616.58;1713584;83;28545;-74
2022/05/01 04:00:31;;;;;;;51.85;27.45;;;;;;;3.11;70.02;97616.27;1681551;85;25755;-73
2022/05/01 04:02:57;;;;;;;42.85;25.17;;;;;;;3.16;70.08;97620.61;1713817;83;25679;-73
2022/05/01 04:05:24;;;;;;;39.80;22.60;;;;;;;3.20;70.14;97617.13;1681599;85;25736;-74
2022/05/01 04:07:51;;;;;;;40.40;22.02;;;;;;;3.24;70.12;97619.33;1713921;83;26356;-74
2022/05/01 04:10:18;;;;;;;36.53;21.27;;;;;;;3.30;70.07;97618.33;1681638;85;28295;-74
2022/05/01 04:12:47;;;;;;;35.28;20.85;;;;;;;3.34;70.12;97617.02;1713536;83;25750;-74
2022/05/01 04:15:17;;;;;;;32.60;20.43;;;;;;;3.39;70.23;97616.02;1713654;82;25768;-73
2022/05/01 04:17:44;;;;;;;31.02;19.82;;;;;;;3.44;70.30;97616.39;1681690;85;26478;-76
2022/05/01 04:20:15;;;;;;;32.93;22.22;;;;;;;3.49;70.37;97607.41;1713819;83;25742;-74
2022/05/01 04:22:44;;;;;;;30.00;19.98;;;;;;;3.55;70.36;97613.42;1681654;85;27404;-76
2022/05/01 04:25:23;;;;;;;29.25;19.45;;;;;;;3.60;70.37;97611.11;1713612;83;26481;-73
2022/05/01 04:27:52;;;;;;;27.52;19.67;;;;;;;3.65;70.39;97615.45;1655180;85;25835;-74
2022/05/01 04:30:22;;;;;;;30.10;21.33;;;;;;;3.71;70.39;97617.98;1655277;85;25843;-74
2022/05/01 04:33:07;;;;;;;33.83;21.15;;;;;;;3.78;70.36;97622.98;1655352;85;25390;-74
2022/05/01 04:35:43;;;;;;;32.98;20.45;;;;;;;3.84;70.38;97623.19;1646409;86;27409;-74
2022/05/01 04:38:14;;;;;;;34.45;21.40;;;;;;;3.91;70.46;97622.02;1611786;87;25752;-74
2022/05/01 04:40:52;;;;;;;39.40;23.87;;;;;;;3.93;70.47;97618.69;1614717;87;26454;-74
2022/05/01 04:43:21;;;;;;;38.33;24.05;;;;;;;3.96;70.41;97621.88;1646617;86;27071;-74
2022/05/01 04:45:50;;;;;;;51.85;31.52;;;;;;;3.99;70.40;97617.52;1614870;87;25946;-74
2022/05/01 04:48:19;;;;;;;62.43;37.17;;;;;;;4.02;70.43;97620.86;1614670;87;27567;-76
2022/05/01 04:50:47;;;;;;;52.15;31.55;;;;;;;4.03;70.42;97611.84;1614708;87;25734;-74
2022/05/01 04:53:34;;;;;;;36.53;25.75;;;;;;;4.07;70.47;97617.20;1594587;89;25806;-72
2022/05/01 04:57:05;;;;;;;36.83;24.60;;;;;;;4.11;70.53;97617.19;1594287;89;25857;-72
2022/05/01 04:58:29;;;;;;;35.78;23.12;;;;;;;4.16;70.54;97612.20;1591411;88;25413;-71
2022/05/01 05:00:56;;;;;;;37.13;23.38;;;;;;;4.21;70.56;97608.54;1594661;89;27396;-74
2022/05/01 05:03:23;;;;;;;34.53;22.52;;;;;;;4.26;70.47;97615.03;1594597;89;25831;-74
2022/05/01 05:05:49;;;;;;;37.85;24.65;;;;;;;4.33;70.47;97611.21;1594514;89;25993;-72
2022/05/01 05:11:01;;;;;;;29.32;19.65;;;;;;;4.42;70.46;97616.05;1594510;88;26661;-72
2022/05/01 05:13:28;;;;;;;31.07;21.65;;;;;;;4.49;70.49;97612.52;1594626;89;27378;-72
2022/05/01 05:15:58;;;;;;;25.97;19.55;;;;;;;4.58;70.60;97612.03;1592799;89;25826;-71
2022/05/01 05:18:27;;;;;;;26.93;19.70;;;;;;;4.65;70.72;97616.53;1609614;88;25897;-71
2022/05/01 05:20:52;;;;;;;30.15;19.27;;;;;;;4.77;70.65;97618.84;1642367;85;25909;-73
2022/05/01 05:23:19;;;;;;;28.85;19.55;;;;;;;4.86;70.61;97615.14;1642503;87;25774;-75
2022/05/01 05:25:45;;;;;;;27.20;18.15;;;;;;;4.94;70.50;97625.85;1664580;85;27425;-72
2022/05/01 05:28:12;;;;;;;23.00;17.12;;;;;;;5.02;70.47;97623.14;1664765;86;25902;-74
2022/05/01 05:30:39;;;;;;;26.57;17.70;;;;;;;5.13;70.48;97628.13;1712782;82;25264;-72
2022/05/01 05:33:06;;;;;;;28.83;18.55;;;;;;;5.25;70.39;97621.40;1731156;82;25677;-72
2022/05/01 05:35:32;;;;;;;26.50;18.35;;;;;;;5.39;70.51;97623.86;1731002;82;25638;-72
2022/05/01 05:37:59;;;;;;;25.85;17.20;;;;;;;5.54;70.45;97617.28;1731038;82;27335;-72
2022/05/01 05:40:26;;;;;;;28.52;18.30;;;;;;;5.68;70.55;97613.83;1730735;82;25471;-73
2022/05/01 05:42:53;;;;;;;30.77;19.00;;;;;;;5.83;70.75;97617.44;1732622;80;25725;-74
2022/05/01 05:45:22;;;;;;;26.97;16.55;;;;;;;5.98;70.53;97614.87;1762418;80;25710;-72
2022/05/01 05:47:48;;;;;;;29.00;18.45;;;;;;;6.10;70.26;97615.63;1761395;81;25231;-73
2022/05/01 05:50:15;;;;;;;28.52;17.90;;;;;;;6.24;70.05;97619.39;1761313;81;27406;-73
2022/05/01 05:52:41;;;;;;;21.17;15.55;;;;;;;6.37;69.96;97612.09;1759161;81;25675;-72
2022/05/01 05:55:09;;;;;;;25.57;15.28;;;;;;;6.50;69.71;97623.05;1746226;81;25837;-72
2022/05/01 05:57:36;;;;;;;21.80;15.55;;;;;;;6.63;69.64;97620.59;1734478;82;25769;-72
2022/05/01 06:00:04;;;;;;;22.32;15.65;;;;;;;6.77;69.51;97625.13;1734675;81;25651;-72
2022/05/01 06:02:31;;;;;;;22.37;16.15;;;;;;;6.93;69.58;97616.59;1734728;81;27413;-73
2022/05/01 06:04:59;;;;;;;20.90;15.35;;;;;;;7.05;69.32;97618.66;1734472;82;25691;-73
2022/05/01 06:07:26;;;;;;;25.08;16.12;;;;;;;7.19;69.25;97619.17;1734633;82;25765;-71
2022/05/01 06:09:52;;;;;;;23.18;15.98;;;;;;;7.32;69.31;97619.87;1734636;81;25844;-73
2022/05/01 06:12:19;;;;;;;21.35;15.00;;;;;;;7.46;69.24;97619.03;1734654;81;25715;-73
2022/05/01 06:14:45;;;;;;;22.67;15.03;;;;;;;7.61;69.05;97624.36;1734720;81;27542;-72
2022/05/01 06:17:12;;;;;;;20.25;15.08;;;;;;;7.72;68.59;97615.85;1734327;82;25769;-73
2022/05/01 06:19:39;;;;;;;21.48;15.40;;;;;;;7.83;68.30;97614.53;1734682;81;25768;-72
2022/05/01 06:22:06;;;;;;;19.30;14.25;;;;;;;7.94;68.21;97614.87;1734602;81;25678;-73
2022/05/01 06:24:33;;;;;;;21.50;14.73;;;;;;;8.07;68.07;97611.50;1734661;82;25903;-73
2022/05/01 06:26:59;;;;;;;20.10;14.70;;;;;;;8.19;68.22;97619.38;1734635;81;28037;-72
2022/05/01 06:29:26;;;;;;;25.48;14.63;;;;;;;8.28;67.94;97611.50;1734548;81;25909;-72
2022/05/01 06:31:53;;;;;;;20.10;14.20;;;;;;;8.38;67.85;97608.52;1734587;81;25675;-74
2022/05/01 06:34:20;;;;;;;20.05;14.45;;;;;;;8.49;67.81;97609.86;1734659;81;25956;-72
2022/05/01 06:36:46;;;;;;;24.23;14.85;;;;;;;8.58;67.44;97610.87;1734784;81;25663;-73
2022/05/01 06:39:15;;;;;;;21.20;14.10;;;;;;;8.66;67.27;97613.95;1734560;82;27633;-73
2022/05/01 06:41:41;;;;;;;21.07;14.60;;;;;;;8.75;67.04;97610.09;1734699;82;25861;-73
2022/05/01 06:44:08;;;;;;;23.18;14.07;;;;;;;8.86;66.78;97616.28;1734846;82;26243;-72
2022/05/01 06:46:34;;;;;;;20.00;13.48;;;;;;;8.96;66.65;97608.69;1734714;81;25830;-72
2022/05/01 06:49:01;;;;;;;18.07;13.60;;;;;;;9.06;66.47;97607.53;1751023;81;26822;-74
2022/05/01 06:51:27;;;;;;;19.30;14.18;;;;;;;9.14;66.52;97608.72;1742399;81;27358;-75
2022/05/01 06:53:54;;;;;;;20.55;13.40;;;;;;;9.22;66.43;97611.25;1773314;80;25676;-74
2022/05/01 06:56:21;;;;;;;17.10;13.05;;;;;;;9.31;66.20;97603.31;1774326;80;25700;-73
2022/05/01 06:58:47;;;;;;;19.40;13.75;;;;;;;9.39;65.87;97609.40;1757521;80;25740;-73
2022/05/01 07:01:14;;;;;;;17.90;13.72;;;;;;;9.47;65.65;97607.56;1761825;80;25704;-72
2022/05/01 07:03:42;;;;;;;16.73;13.18;;;;;;;9.52;65.52;97611.84;1773858;80;27612;-72
2022/05/01 07:06:11;;;;;;;18.02;12.60;;;;;;;9.56;65.44;97611.74;1788379;78;25696;-72
2022/05/01 07:08:38;;;;;;;18.52;13.75;;;;;;;9.63;65.21;97609.93;1788755;78;25669;-73
2022/05/01 07:11:04;;;;;;;18.25;13.68;;;;;;;9.72;64.96;97611.41;1788825;78;26306;-75
2022/05/01 07:13:31;;;;;;;17.62;13.83;;;;;;;9.79;64.81;97607.38;1775534;80;26030;-72
2022/05/01 07:15:57;;;;;;;20.72;14.18;;;;;;;9.84;64.97;97606.27;1771737;80;28029;-74
2022/05/01 07:18:24;;;;;;;20.40;14.95;;;;;;;9.87;65.02;97607.23;1788588;80;25780;-71
2022/05/01 07:20:50;;;;;;;21.93;15.68;;;;;;;9.91;65.11;97610.65;1777635;78;25739;-72
2022/05/01 07:23:21;;;;;;;25.10;16.17;;;;;;;9.98;64.68;97607.99;1757582;80;25824;-74
2022/05/01 07:25:45;;;;;;;23.40;16.02;;;;;;;10.08;64.71;97607.09;1753605;81;25720;-72
2022/05/01 07:28:12;;;;;;;24.35;16.65;;;;;;;10.18;64.37;97608.03;1757534;80;28210;-73
2022/05/01 07:30:38;;;;;;;22.75;16.00;;;;;;;10.28;64.28;97609.34;1757431;80;25835;-73
2022/05/01 07:33:08;;;;;;;22.35;16.52;;;;;;;10.37;63.99;97601.38;1757153;80;25773;-72
2022/05/01 07:35:35;;;;;;;21.87;15.90;;;;;;;10.48;63.73;97598.59;1757487;80;25697;-73
2022/05/01 07:38:02;;;;;;;25.02;16.40;;;;;;;10.61;63.63;97597.25;1757437;80;25737;-76
2022/05/01 07:40:29;;;;;;;24.92;16.80;;;;;;;10.75;63.46;97594.02;1757095;80;27606;-72
2022/05/01 07:42:56;;;;;;;23.07;15.35;;;;;;;10.89;63.32;97594.84;1757455;80;25745;-74
2022/05/01 07:45:22;;;;;;;21.37;15.85;;;;;;;11.04;62.99;97597.64;1757372;80;25776;-73
2022/05/01 07:47:49;;;;;;;23.65;16.20;;;;;;;11.19;62.66;97596.08;1744784;81;26501;-73
2022/05/01 07:50:17;;;;;;;21.40;15.48;;;;;;;11.35;62.43;97594.80;1757959;80;25706;-74
2022/05/01 07:52:44;;;;;;;21.82;15.95;;;;;;;11.52;62.10;97595.98;1757651;81;27377;-72
2022/05/01 07:55:10;;;;;;;23.98;16.48;;;;;;;11.70;61.99;97588.04;1741038;81;25829;-72
2022/05/01 07:57:37;;;;;;;22.87;16.50;;;;;;;11.86;61.60;97585.38;1726352;82;25846;-76
2022/05/01 08:00:05;;;;;;;24.12;15.90;;;;;;;12.04;61.35;97590.09;1758461;81;26549;-75
2022/05/01 08:05:24;;;;;;;20.35;15.60;;;;;;;12.47;60.94;97586.18;1758247;81;27431;-74
2022/05/01 08:07:52;;;;;;;22.82;15.70;;;;;;;12.69;60.47;97583.93;1758063;81;25619;-74
2022/05/01 08:10:20;;;;;;;22.25;15.83;;;;;;;12.89;60.34;97581.38;1752101;81;25260;-74
2022/05/01 08:12:47;;;;;;;19.92;15.15;;;;;;;13.27;59.69;97571.78;1703408;82;25764;-74
2022/05/01 08:15:18;;;;;;;20.52;15.03;;;;;;;13.56;59.08;97569.36;1728229;81;25756;-75
2022/05/01 08:17:46;;;;;;;22.30;14.35;;;;;;;13.86;58.64;97564.84;1703507;84;27377;-75
2022/05/01 08:23:07;;;;;;;22.50;14.05;;;;;;;14.23;57.44;97562.87;1703482;82;25706;-74
2022/05/01 08:25:35;;;;;;;18.67;14.10;;;;;;;14.43;57.59;97558.53;1728344;83;25718;-74
2022/05/01 08:28:01;;;;;;;18.32;13.40;;;;;;;14.65;57.02;97553.38;1703482;82;25688;-73
2022/05/01 08:30:28;;;;;;;17.70;12.78;;;;;;;14.98;56.57;97555.02;1728324;83;27617;-76
2022/05/01 08:32:55;;;;;;;18.98;12.88;;;;;;;15.39;56.05;97548.63;1703309;83;25775;-74
2022/05/01 08:35:23;;;;;;;16.82;11.88;;;;;;;15.81;55.36;97542.49;1728352;83;25715;-75
2022/05/01 08:37:50;;;;;;;19.92;12.03;;;;;;;16.38;54.55;97541.66;1703600;82;25716;-74
2022/05/01 08:40:16;;;;;;;19.07;12.20;;;;;;;17.10;53.82;97545.89;1728341;81;26262;-75
2022/05/01 08:42:46;;;;;;;14.68;11.05;;;;;;;17.74;52.69;97536.73;1728271;81;27411;-77
2022/05/01 08:45:15;;;;;;;14.90;11.15;;;;;;;18.13;51.54;97531.98;1728221;81;26128;-74
2022/05/01 08:48:11;;;;;;;14.47;10.72;;;;;;;18.64;51.36;97532.00;1728322;81;25842;-75
2022/05/01 08:50:39;;;;;;;16.82;10.13;;;;;;;19.13;50.35;97535.41;1726064;81;26364;-75
2022/05/01 08:53:07;;;;;;;15.98;9.58;;;;;;;19.71;48.89;97529.48;1729141;82;25693;-74
2022/05/01 08:55:38;;;;;;;11.65;9.15;;;;;;;19.91;47.99;97528.77;1698556;83;27598;-74
2022/05/01 08:58:06;;;;;;;11.30;8.25;;;;;;;20.30;47.52;97527.77;1728681;81;25794;-75
2022/05/01 09:00:32;;;;;;;10.85;8.43;;;;;;;20.67;46.78;97519.36;1698753;83;25733;-78
2022/05/01 09:02:59;;;;;;;12.93;8.63;;;;;;;20.95;46.05;97524.31;1728478;83;26477;-77
2022/05/01 09:05:26;;;;;;;10.55;7.70;;;;;;;21.05;45.31;97516.08;1723092;83;25763;-74
2022/05/01 09:07:52;;;;;;;10.15;7.35;;;;;;;21.24;43.95;97516.92;1698570;83;27541;-76
2022/05/01 09:10:20;;;;;;;11.88;7.15;;;;;;;21.32;43.86;97515.80;1728697;81;25244;-78
2022/05/01 09:12:49;;;;;;;12.03;7.37;;;;;;;21.39;42.89;97511.38;1698649;84;25759;-76
2022/05/01 09:15:32;;;;;;;9.75;6.53;;;;;;;21.51;42.39;97510.53;1728787;82;26481;-76
2022/05/01 09:18:05;;;;;;;5.95;5.33;;;;;;;21.69;41.93;97507.74;1728591;81;25739;-79
2022/05/01 09:20:33;;;;;;;8.53;5.72;;;;;;;21.89;40.98;97509.02;1687269;84;28100;-75
2022/05/01 09:23:00;;;;;;;7.00;5.72;;;;;;;22.00;40.47;97502.41;1687059;85;25689;-75
2022/05/01 09:25:29;;;;;;;6.97;5.50;;;;;;;22.06;39.84;97496.34;1687371;83;26001;-76
2022/05/01 09:27:59;;;;;;;6.53;5.08;;;;;;;21.95;39.15;97489.23;1687298;84;25892;-75
2022/05/01 09:30:35;;;;;;;6.17;5.22;;;;;;;21.81;38.92;97485.71;1687320;83;25788;-75
2022/05/01 09:33:03;;;;;;;8.00;5.30;;;;;;;21.77;39.04;97484.63;1687294;83;28186;-78
2022/05/01 09:35:35;;;;;;;9.13;5.62;;;;;;;21.80;38.84;97481.31;1687208;84;25799;-76
2022/05/01 09:38:25;;;;;;;7.70;5.45;;;;;;;21.79;38.34;97472.80;1687061;83;25827;-76
2022/05/01 09:41:04;;;;;;;5.65;4.55;;;;;;;21.57;38.14;97476.47;1668359;85;25783;-75
2022/05/01 09:43:46;;;;;;;7.15;4.60;;;;;;;21.27;38.10;97471.05;1668622;85;25812;-77
2022/05/01 09:46:24;;;;;;;6.42;4.83;;;;;;;21.10;37.79;97476.28;1668649;84;27412;-75
2022/05/01 09:49:12;;;;;;;5.28;4.78;;;;;;;21.01;37.79;97464.20;1668405;84;25336;-74
2022/05/01 09:54:21;;;;;;;6.75;5.90;;;;;;;21.18;37.94;97466.13;1545318;91;34863;-76
2022/05/01 09:56:54;;;;;;;7.53;5.97;;;;;;;21.26;37.39;97459.25;1523695;94;25782;-75
2022/05/01 09:59:24;;;;;;;7.85;6.20;;;;;;;21.06;38.26;97465.58;1547569;92;27481;-76
2022/05/01 10:02:06;;;;;;;9.03;6.47;;;;;;;21.08;38.53;97466.12;1547405;91;25883;-75
2022/05/01 10:04:37;;;;;;;8.95;5.72;;;;;;;21.24;38.86;97430.45;1525404;92;25910;-77
2022/05/01 10:07:06;;;;;;;8.75;6.05;;;;;;;21.81;38.43;97458.78;1547194;92;25969;-75
2022/05/01 10:09:36;;;;;;;7.30;5.97;;;;;;;22.27;37.71;97455.25;1525418;94;25782;-78
2022/05/01 10:12:10;;;;;;;7.30;5.28;;;;;;;22.62;37.58;97454.16;1557469;91;27433;-74
2022/05/01 10:14:36;;;;;;;7.35;5.50;;;;;;;22.87;37.11;97453.16;1568769;91;25812;-75
2022/05/01 10:17:04;;;;;;;8.53;5.22;;;;;;;22.84;36.88;97450.42;1569479;90;25877;-74
2022/05/01 10:19:31;;;;;;;10.60;5.60;;;;;;;22.80;36.63;97450.76;1570039;91;26590;-78
2022/05/01 10:22:00;;;;;;;8.90;5.17;;;;;;;22.91;36.39;97449.55;1570285;91;26422;-77
2022/05/01 10:24:28;;;;;;;7.97;5.28;;;;;;;23.01;36.25;97448.63;1570766;91;27539;-74
2022/05/01 10:27:27;;;;;;;7.97;5.00;;;;;;;22.95;36.00;97445.64;1548787;92;26240;-74
2022/05/01 10:33:46;;;;;;;5.85;5.17;;;;;;;22.46;35.65;97442.45;1587807;90;26509;-74
2022/05/01 10:36:45;;;;;;;7.85;5.03;;;;;;;22.12;35.63;97433.34;1562835;91;25827;-76
2022/05/01 10:39:17;;;;;;;7.58;5.67;;;;;;;21.82;35.78;97446.14;1575111;91;27470;-73
2022/05/01 10:41:46;;;;;;;8.13;5.72;;;;;;;21.58;35.83;97452.02;1575009;91;25956;-75
2022/05/01 10:44:26;;;;;;;7.85;6.03;;;;;;;21.41;35.61;97446.03;1575209;91;25819;-77
2022/05/01 10:46:54;;;;;;;7.45;5.33;;;;;;;21.06;36.34;97445.00;1541671;93;25934;-76
2022/05/01 10:49:41;;;;;;;7.47;5.35;;;;;;;20.79;36.42;97452.16;1541754;93;25830;-77
2022/05/01 10:52:19;;;;;;;5.75;5.15;;;;;;;20.44;36.64;97422.00;1528427;93;27602;-76
2022/05/01 10:54:58;;;;;;;8.33;5.42;;;;;;;20.44;36.25;97457.10;1478049;96;25934;-78
2022/05/01 10:57:25;;;;;;;8.85;4.95;;;;;;;20.28;36.69;97454.06;1422782;100;25888;-74
2022/05/01 11:00:11;;;;;;;6.85;5.40;;;;;;;20.18;37.31;97449.91;1422971;100;25722;-78
2022/05/01 11:02:40;;;;;;;7.00;5.45;;;;;;;20.17;37.13;97448.80;1444999;99;26631;-73
2022/05/01 11:05:10;;;;;;;8.40;5.58;;;;;;;20.08;36.89;97441.67;1432894;98;27435;-74
2022/05/01 11:07:39;;;;;;;7.65;5.67;;;;;;;20.02;36.94;97449.63;1432573;100;25935;-74
2022/05/01 11:10:10;;;;;;;6.97;5.30;;;;;;;19.98;36.94;97443.84;1432912;98;25825;-75
2022/05/01 11:12:38;;;;;;;7.22;5.33;;;;;;;20.02;37.03;97448.25;1432899;100;25822;-73
2022/05/01 11:15:09;;;;;;;8.48;5.80;;;;;;;20.05;37.31;97449.88;1429993;100;26549;-74
2022/05/01 11:17:46;;;;;;;6.23;5.43;;;;;;;20.03;37.34;97453.47;1402518;102;27622;-74
2022/05/01 11:20:23;;;;;;;9.35;5.70;;;;;;;20.04;37.25;97451.00;1402480;102;25414;-73
2022/05/01 11:22:51;;;;;;;8.10;5.97;;;;;;;20.04;37.12;97446.89;1409901;99;25854;-76
2022/05/01 11:25:32;;;;;;;7.87;5.55;;;;;;;20.16;37.41;97450.75;1421668;99;25917;-73
2022/05/01 11:27:59;;;;;;;7.10;5.83;;;;;;;20.27;37.33;97447.47;1449256;98;25919;-74
2022/05/01 11:30:33;;;;;;;7.92;5.67;;;;;;;20.26;37.26;97448.02;1460697;98;27430;-74
2022/05/01 11:33:08;;;;;;;6.70;5.62;;;;;;;20.21;37.37;97447.17;1460679;96;25927;-74
2022/05/01 11:36:00;;;;;;;6.83;4.85;;;;;;;20.10;37.54;97449.08;1446889;99;25863;-76
2022/05/01 11:38:40;;;;;;;8.08;5.83;;;;;;;20.06;37.42;97447.97;1446980;97;25940;-78
2022/05/01 11:41:08;;;;;;;11.12;5.62;;;;;;;20.06;37.56;97449.34;1468933;96;25867;-74
2022/05/01 11:43:35;;;;;;;7.37;5.22;;;;;;;19.91;37.30;97443.84;1493027;94;27711;-76
2022/05/01 11:46:04;;;;;;;8.88;5.60;;;;;;;19.82;37.49;97444.06;1510680;93;25869;-74
2022/05/01 11:48:34;;;;;;;10.03;5.70;;;;;;;19.72;37.44;97445.69;1520204;91;25872;-74
2022/05/01 11:51:00;;;;;;;8.50;6.17;;;;;;;19.65;37.77;97441.02;1571342;86;26546;-78
2022/05/01 11:53:30;;;;;;;8.58;5.47;;;;;;;19.61;37.61;97445.92;1617706;86;25785;-73
2022/05/01 12:04:36;;;;;;;8.95;5.22;;;;;;;19.06;37.57;97445.36;1599012;88;25798;-74
2022/05/01 12:07:15;;;;;;;7.20;5.30;;;;;;;18.85;37.58;97442.20;1584211;88;25902;-74
2022/05/01 12:09:45;;;;;;;6.72;5.75;;;;;;;18.76;37.72;97443.78;1582193;89;27519;-75
2022/05/01 12:12:14;;;;;;;8.00;5.80;;;;;;;18.73;37.93;97436.64;1593093;88;25945;-75